Time;durP1;ratioP1;P1;durP2;ratioP2;P2;SDS_P1;SDS_P2;PMS_P1;PMS_P2;Temp;Humidity;BMP_temperature;BMP_pressure;BME280_temperature;BME280_humidity;BME280_pressure;Samples;Min_cycle;Max_cycle;Signal;HPM_P1;HPM_P2
2022/06/12 00:00:34;;;;;;;5.03;4.70;;;;;;;19.05;100.00;98994.22;5015193;28;20190;-72
2022/06/12 00:03:02;;;;;;;4.93;4.73;;;;;;;19.07;100.00;98986.69;5015442;28;20227;-72
2022/06/12 00:05:32;;;;;;;4.97;4.77;;;;;;;19.06;100.00;98990.44;5014896;28;20698;-72
2022/06/12 00:07:59;;;;;;;5.37;4.97;;;;;;;19.08;100.00;98988.31;5015476;28;20203;-72
2022/06/12 00:10:26;;;;;;;5.40;5.07;;;;;;;19.18;100.00;98994.53;5015291;28;20189;-72
2022/06/12 00:12:53;;;;;;;4.93;4.63;;;;;;;19.17;100.00;98990.22;5015196;28;20709;-72
2022/06/12 00:15:23;;;;;;;4.80;4.40;;;;;;;19.06;100.00;98972.41;5014893;28;20226;-72
2022/06/12 00:17:53;;;;;;;4.60;4.40;;;;;;;19.14;100.00;98993.44;5015394;28;20278;-72
2022/06/12 00:20:22;;;;;;;4.83;4.53;;;;;;;19.13;100.00;98997.22;5015166;28;20195;-71
2022/06/12 00:22:49;;;;;;;5.03;4.63;;;;;;;19.43;100.00;98996.53;5015135;28;20234;-71
2022/06/12 00:25:18;;;;;;;5.20;4.80;;;;;;;19.40;100.00;98997.09;5014466;28;20198;-72
2022/06/12 00:27:45;;;;;;;4.17;3.97;;;;;;;19.33;100.00;98991.94;5014338;28;20231;-72
2022/06/12 00:30:16;;;;;;;5.27;3.93;;;;;;;19.20;100.00;98970.03;5017790;28;20259;-72
2022/06/12 00:32:49;;;;;;;4.13;3.93;;;;;;;19.26;100.00;98982.47;5016054;28;20252;-73
2022/06/12 00:35:18;;;;;;;4.40;4.20;;;;;;;19.17;100.00;98984.84;5026743;28;20307;-73
2022/06/12 00:37:45;;;;;;;4.73;4.53;;;;;;;19.15;100.00;98983.50;5034337;28;20251;-72
2022/06/12 00:40:13;;;;;;;4.63;4.33;;;;;;;19.07;100.00;98975.91;5035082;28;20259;-72
2022/06/12 00:42:44;;;;;;;4.50;4.20;;;;;;;19.09;100.00;98974.59;5034417;28;20199;-70
2022/06/12 00:45:43;;;;;;;4.57;4.37;;;;;;;19.23;100.00;98974.88;5034824;28;20214;-72
2022/06/12 00:48:14;;;;;;;4.70;4.10;;;;;;;19.37;100.00;98981.44;4993132;28;20250;-71
2022/06/12 00:50:46;;;;;;;4.67;4.20;;;;;;;19.21;100.00;98971.66;5026269;28;20724;-72
2022/06/12 00:53:18;;;;;;;4.60;4.20;;;;;;;19.22;100.00;98974.09;5033871;28;20185;-71
2022/06/12 00:55:54;;;;;;;4.60;4.40;;;;;;;19.14;100.00;98971.09;5032335;28;20259;-73
2022/06/12 00:58:24;;;;;;;4.47;4.17;;;;;;;19.19;100.00;98973.81;5033904;28;20189;-70
2022/06/12 01:00:51;;;;;;;4.27;3.90;;;;;;;19.20;100.00;98981.59;5034471;28;20208;-71
2022/06/12 01:03:19;;;;;;;4.70;4.50;;;;;;;19.14;100.00;98973.78;5034727;28;20194;-70
2022/06/12 01:08:33;;;;;;;3.60;3.47;;;;;;;19.22;100.00;98973.25;5033909;28;20210;-70
2022/06/12 01:11:05;;;;;;;4.27;4.00;;;;;;;19.12;100.00;98967.84;5032427;28;20667;-71
2022/06/12 01:13:36;;;;;;;4.00;3.80;;;;;;;19.14;100.00;98963.00;5034055;28;20316;-71
2022/06/12 01:16:07;;;;;;;4.33;3.93;;;;;;;19.23;100.00;98964.09;5034469;28;20264;-72
2022/06/12 01:18:38;;;;;;;3.80;3.60;;;;;;;19.16;100.00;98956.28;5034669;28;20185;-73
2022/06/12 01:21:30;;;;;;;3.77;3.57;;;;;;;19.06;100.00;98974.28;5033172;28;20192;-73
2022/06/12 01:24:25;;;;;;;6.40;4.03;;;;;;;19.10;100.00;98959.22;5033192;28;20282;-72
2022/06/12 01:27:18;;;;;;;4.00;3.80;;;;;;;18.96;100.00;98955.41;5033405;28;20709;-73
2022/06/12 01:29:54;;;;;;;4.13;3.83;;;;;;;18.83;100.00;98964.75;5030932;28;20655;-72
2022/06/12 01:32:30;;;;;;;4.47;3.73;;;;;;;18.88;100.00;98963.97;5033253;28;20245;-73
2022/06/12 01:35:04;;;;;;;4.50;4.10;;;;;;;18.98;100.00;98964.00;5033687;28;20245;-73
2022/06/12 01:37:42;;;;;;;4.20;3.90;;;;;;;18.91;100.00;98968.84;5032929;28;20247;-72
2022/06/12 01:40:16;;;;;;;6.90;3.90;;;;;;;18.88;100.00;98955.91;5033111;28;20205;-73
2022/06/12 01:42:48;;;;;;;4.00;3.80;;;;;;;18.79;100.00;98958.28;5033079;28;20231;-73
2022/06/12 01:45:28;;;;;;;3.60;3.50;;;;;;;18.80;100.00;98959.09;5033475;28;20280;-73
2022/06/12 01:48:04;;;;;;;4.40;4.10;;;;;;;18.84;100.00;98960.19;5032866;28;20208;-73
2022/06/12 01:50:37;;;;;;;4.03;3.83;;;;;;;18.81;100.00;98953.47;5032733;28;20201;-72
2022/06/12 01:53:12;;;;;;;4.00;3.70;;;;;;;18.78;100.00;98958.56;5033306;28;20183;-73
2022/06/12 01:55:48;;;;;;;4.33;4.00;;;;;;;18.74;100.00;98950.19;5032617;28;20211;-73
2022/06/12 01:58:20;;;;;;;4.13;3.80;;;;;;;18.81;100.00;98956.16;5032928;28;20244;-72
2022/06/12 02:00:55;;;;;;;4.70;4.50;;;;;;;18.87;100.00;98967.75;5032561;28;20217;-72
2022/06/12 02:03:30;;;;;;;4.23;4.00;;;;;;;18.89;100.00;98965.59;5032545;28;20190;-71
2022/06/12 02:06:05;;;;;;;4.23;3.80;;;;;;;18.83;100.00;98969.34;5032473;28;20256;-72
2022/06/12 02:08:38;;;;;;;4.40;4.20;;;;;;;18.92;100.00;98962.38;5033520;28;20189;-71
2022/06/12 02:13:58;;;;;;;4.40;4.10;;;;;;;18.96;100.00;98958.91;5033036;28;20561;-71
2022/06/12 02:16:31;;;;;;;4.17;3.97;;;;;;;18.88;100.00;98961.28;5032507;28;20217;-71
2022/06/12 02:19:03;;;;;;;6.20;3.90;;;;;;;18.80;100.00;98969.84;5032762;28;20210;-70
2022/06/12 02:21:37;;;;;;;4.23;4.03;;;;;;;19.16;100.00;98964.34;5031916;28;20190;-71
2022/06/12 02:24:08;;;;;;;4.30;3.93;;;;;;;19.21;100.00;98963.56;5032742;28;20521;-70
2022/06/12 02:26:42;;;;;;;4.27;4.07;;;;;;;19.09;100.00;98971.88;5032965;28;20627;-70
2022/06/12 02:29:16;;;;;;;4.63;4.13;;;;;;;19.01;100.00;98977.78;5032932;28;20540;-71
2022/06/12 02:31:50;;;;;;;4.30;4.07;;;;;;;19.12;100.00;98984.81;5032593;28;20184;-71
2022/06/12 02:34:22;;;;;;;4.53;4.17;;;;;;;19.44;100.00;98990.09;5032867;28;20247;-72
2022/06/12 02:36:53;;;;;;;5.97;4.27;;;;;;;19.63;100.00;98992.00;5032490;28;20251;-73
2022/06/12 02:39:25;;;;;;;4.83;4.43;;;;;;;19.88;100.00;98993.94;5032046;28;20715;-72
2022/06/12 02:41:58;;;;;;;4.40;4.10;;;;;;;20.17;100.00;98997.75;5031956;28;20185;-72
2022/06/12 02:44:32;;;;;;;4.20;4.00;;;;;;;20.20;100.00;98991.81;5033110;28;20195;-72
2022/06/12 02:47:06;;;;;;;5.20;4.70;;;;;;;20.01;100.00;98982.66;5032605;28;20247;-72
2022/06/12 02:49:34;;;;;;;4.43;4.03;;;;;;;19.65;100.00;98984.47;5032555;28;20590;-72
2022/06/12 02:52:08;;;;;;;5.30;5.00;;;;;;;19.37;100.00;98976.06;5031833;28;20676;-71
2022/06/12 02:54:45;;;;;;;6.10;5.10;;;;;;;19.38;100.00;98983.06;5032692;28;20189;-71
2022/06/12 02:57:20;;;;;;;5.37;4.97;;;;;;;19.40;100.00;98986.31;5031822;28;20651;-72
2022/06/12 03:00:02;;;;;;;5.77;5.20;;;;;;;19.27;100.00;98974.13;5031873;28;20279;-70
2022/06/12 03:02:34;;;;;;;6.20;4.57;;;;;;;19.23;100.00;98980.25;5032222;28;20186;-71
2022/06/12 03:05:07;;;;;;;5.87;5.47;;;;;;;19.22;100.00;98970.56;5032595;28;20193;-71
2022/06/12 03:07:35;;;;;;;5.57;5.27;;;;;;;19.16;100.00;98968.94;5032598;28;20190;-71
2022/06/12 03:10:07;;;;;;;5.23;4.83;;;;;;;19.13;100.00;98966.78;5032045;28;20246;-72
2022/06/12 03:12:34;;;;;;;5.67;5.37;;;;;;;18.95;100.00;98978.03;5031986;28;20693;-71
2022/06/12 03:15:02;;;;;;;5.60;4.70;;;;;;;18.93;100.00;98974.75;5032083;28;20275;-71
2022/06/12 03:17:30;;;;;;;5.27;4.77;;;;;;;18.88;100.00;98966.69;5031935;28;20249;-71
2022/06/12 03:19:57;;;;;;;5.07;4.87;;;;;;;18.93;100.00;98969.38;5031880;28;20200;-70
2022/06/12 03:22:32;;;;;;;5.47;5.13;;;;;;;19.02;100.00;98962.41;5031588;28;20715;-70
2022/06/12 03:25:12;;;;;;;5.90;5.60;;;;;;;18.96;100.00;98958.09;5031576;28;20245;-70
2022/06/12 03:27:50;;;;;;;6.03;5.53;;;;;;;18.88;100.00;98966.69;5031606;28;20731;-72
2022/06/12 03:30:24;;;;;;;6.17;5.77;;;;;;;18.75;100.00;98967.94;5032766;28;20244;-72
2022/06/12 03:33:00;;;;;;;6.23;5.73;;;;;;;18.61;100.00;98960.59;5031734;28;20193;-71
2022/06/12 03:35:50;;;;;;;6.33;5.70;;;;;;;18.71;100.00;98960.66;5035545;28;20665;-71
2022/06/12 03:38:24;;;;;;;5.40;5.10;;;;;;;18.72;100.00;98962.28;5035626;28;20190;-71
2022/06/12 03:40:59;;;;;;;6.00;5.70;;;;;;;18.82;100.00;98962.31;5035847;28;20632;-72
2022/06/12 03:43:36;;;;;;;5.97;5.67;;;;;;;18.73;100.00;98964.72;5035119;28;20185;-71
2022/06/12 03:46:13;;;;;;;6.07;5.67;;;;;;;18.78;100.00;98970.13;5035103;28;20620;-71
2022/06/12 03:48:49;;;;;;;6.37;5.97;;;;;;;18.80;100.00;98975.25;5035090;28;20253;-71
2022/06/12 03:51:23;;;;;;;6.70;6.20;;;;;;;18.79;100.00;98970.94;5035928;28;20186;-71
2022/06/12 03:53:58;;;;;;;7.13;6.53;;;;;;;18.82;100.00;98978.47;5034976;28;20699;-72
2022/06/12 03:59:22;;;;;;;6.03;5.57;;;;;;;19.00;100.00;98976.16;5035499;28;20189;-75
2022/06/12 04:01:51;;;;;;;6.37;5.57;;;;;;;18.94;100.00;98976.38;5036177;28;20205;-73
2022/06/12 04:04:24;;;;;;;5.70;5.40;;;;;;;18.89;100.00;98969.09;5034833;28;20626;-72
2022/06/12 04:06:54;;;;;;;6.33;5.83;;;;;;;18.99;100.00;98974.53;5034710;28;20200;-73
2022/06/12 04:09:26;;;;;;;6.00;5.67;;;;;;;18.95;100.00;98972.63;5034983;28;20255;-71
2022/06/12 04:11:55;;;;;;;6.30;5.70;;;;;;;18.92;100.00;98973.16;5035452;28;20237;-72
2022/06/12 04:14:27;;;;;;;5.83;5.53;;;;;;;18.89;100.00;98974.50;5034521;28;20256;-71
2022/06/12 04:16:58;;;;;;;6.00;5.67;;;;;;;18.83;100.00;98974.72;5034506;28;20627;-72
2022/06/12 04:19:29;;;;;;;9.33;6.30;;;;;;;18.90;100.00;98965.34;5035066;28;20255;-72
2022/06/12 04:22:02;;;;;;;6.90;6.50;;;;;;;18.90;100.00;98970.72;5034175;28;20709;-74
2022/06/12 04:24:36;;;;;;;6.63;6.03;;;;;;;18.94;100.00;98971.00;5034791;28;20190;-72
2022/06/12 04:27:08;;;;;;;5.90;5.50;;;;;;;18.95;100.00;98959.97;5035569;28;20189;-72
2022/06/12 04:29:39;;;;;;;5.80;5.40;;;;;;;18.99;100.00;98969.13;5034424;28;20183;-74
2022/06/12 04:32:08;;;;;;;7.00;6.60;;;;;;;19.05;100.00;98972.66;5034799;28;20196;-73
2022/06/12 04:34:39;;;;;;;5.80;5.50;;;;;;;19.03;100.00;98970.22;5034184;28;20591;-74
2022/06/12 04:37:13;;;;;;;6.13;5.70;;;;;;;19.06;100.00;98979.66;5034413;28;20208;-73
2022/06/12 04:39:41;;;;;;;6.47;5.97;;;;;;;19.01;100.00;98988.53;5035403;28;20187;-76
2022/06/12 04:42:08;;;;;;;6.13;5.73;;;;;;;18.96;100.00;98985.84;5034026;28;20204;-76
2022/06/12 04:44:36;;;;;;;6.20;5.80;;;;;;;19.03;100.00;98996.38;5033829;28;20202;-73
2022/06/12 04:47:05;;;;;;;7.60;7.10;;;;;;;19.10;100.00;98988.84;5034196;28;20203;-73
2022/06/12 04:49:35;;;;;;;6.53;6.23;;;;;;;19.09;100.00;98990.75;5033990;28;20255;-71
2022/06/12 04:52:08;;;;;;;5.60;5.23;;;;;;;19.12;100.00;98997.47;5033849;28;20241;-71
2022/06/12 04:54:36;;;;;;;6.07;5.77;;;;;;;19.17;100.00;98997.50;5034667;28;20189;-72
2022/06/12 04:57:03;;;;;;;6.20;5.90;;;;;;;19.30;100.00;99002.41;5034070;28;20227;-69
2022/06/12 04:59:31;;;;;;;6.70;6.20;;;;;;;19.24;100.00;99006.19;5033995;28;20198;-72
2022/06/12 05:01:58;;;;;;;6.67;6.10;;;;;;;19.22;100.00;99003.72;5033628;28;20189;-74
2022/06/12 05:04:26;;;;;;;7.33;6.83;;;;;;;19.17;100.00;99006.38;5033819;28;20224;-72
2022/06/12 05:06:53;;;;;;;6.90;6.50;;;;;;;19.17;100.00;99010.94;5033521;28;20669;-70
2022/06/12 05:09:25;;;;;;;7.00;6.50;;;;;;;19.20;100.00;99018.50;5033612;28;20193;-70
2022/06/12 05:11:53;;;;;;;6.57;6.10;;;;;;;19.35;100.00;99021.28;5034342;28;20296;-70
2022/06/12 05:14:20;;;;;;;7.17;6.47;;;;;;;19.44;100.00;99007.03;5033788;28;20199;-72
2022/06/12 05:16:51;;;;;;;6.20;5.90;;;;;;;19.43;100.00;99018.06;5033274;28;20224;-77
2022/06/12 05:19:22;;;;;;;6.47;6.13;;;;;;;19.57;100.00;99025.41;5034296;28;20189;-71
2022/06/12 05:21:49;;;;;;;6.50;6.10;;;;;;;19.61;100.00;99025.69;5034372;28;20198;-72
2022/06/12 05:24:16;;;;;;;6.77;6.27;;;;;;;19.58;100.00;99031.59;5033292;28;20256;-71
2022/06/12 05:26:47;;;;;;;6.23;5.93;;;;;;;19.61;100.00;99036.47;5032902;28;20201;-72
2022/06/12 05:29:20;;;;;;;6.63;6.03;;;;;;;19.57;100.00;99046.16;5033382;28;20256;-72
2022/06/12 05:31:47;;;;;;;6.17;5.87;;;;;;;19.54;100.00;99036.72;5032936;28;20258;-74
2022/06/12 05:34:15;;;;;;;6.93;6.43;;;;;;;19.70;100.00;99046.47;5033764;28;20230;-76
2022/06/12 05:36:43;;;;;;;6.97;5.70;;;;;;;20.07;100.00;99048.97;5033714;28;20639;-72
2022/06/12 05:39:10;;;;;;;8.50;6.30;;;;;;;20.34;100.00;99047.66;5033227;28;20616;-74
2022/06/12 05:41:37;;;;;;;7.50;7.00;;;;;;;20.63;100.00;99039.84;5033988;28;20204;-77
2022/06/12 05:44:06;;;;;;;5.93;5.63;;;;;;;20.51;100.00;99042.00;5032709;28;20197;-76
2022/06/12 05:46:34;;;;;;;5.97;5.57;;;;;;;20.88;100.00;99041.69;5032854;28;20255;-76
2022/06/12 05:49:00;;;;;;;6.07;5.67;;;;;;;21.03;100.00;99031.66;5032933;28;20201;-74
2022/06/12 05:51:27;;;;;;;5.90;5.43;;;;;;;20.92;100.00;99032.81;5033512;28;20197;-78
2022/06/12 05:53:54;;;;;;;5.60;5.10;;;;;;;20.94;100.00;99030.63;5033487;28;20256;-77
2022/06/12 05:56:24;;;;;;;6.80;5.63;;;;;;;20.63;100.00;99034.44;5032553;28;20229;-79
2022/06/12 05:58:50;;;;;;;6.03;5.67;;;;;;;20.82;100.00;99042.78;5033026;28;20672;-80
2022/06/12 06:01:22;;;;;;;6.27;5.77;;;;;;;20.99;100.00;99037.91;5032785;28;20201;-77
2022/06/12 06:03:50;;;;;;;6.50;6.10;;;;;;;20.74;100.00;99054.94;4999298;28;20210;-81
2022/06/12 06:06:19;;;;;;;6.10;5.53;;;;;;;21.04;100.00;99043.28;5009085;28;20737;-75
2022/06/12 06:08:46;;;;;;;6.17;5.87;;;;;;;20.69;100.00;99046.84;4992052;28;20202;-84
2022/06/12 06:11:13;;;;;;;6.00;5.57;;;;;;;20.62;100.00;99043.59;5001608;28;20198;-76
2022/06/12 06:13:40;;;;;;;8.33;5.70;;;;;;;20.68;100.00;99053.31;5013127;28;20731;-81
2022/06/12 06:16:08;;;;;;;6.27;5.87;;;;;;;20.68;100.00;99047.94;5012448;28;20280;-74
2022/06/12 06:18:39;;;;;;;6.73;6.43;;;;;;;20.71;100.00;99050.09;5012765;28;20230;-83
2022/06/12 06:21:06;;;;;;;6.63;6.13;;;;;;;20.80;100.00;99053.03;4993602;28;20194;-79
2022/06/12 06:23:32;;;;;;;7.00;6.60;;;;;;;20.85;100.00;99058.41;4992927;28;20194;-83
2022/06/12 06:25:59;;;;;;;6.17;5.87;;;;;;;20.86;100.00;99071.66;4992075;28;20205;-77
2022/06/12 06:28:26;;;;;;;7.23;6.80;;;;;;;20.79;100.00;99063.03;4993337;28;20199;-81
2022/06/12 06:30:53;;;;;;;7.37;6.37;;;;;;;20.96;100.00;99066.28;4993160;28;20245;-82
2022/06/12 06:33:20;;;;;;;11.07;6.00;;;;;;;21.12;100.00;99065.16;4992941;28;20623;-75
2022/06/12 06:35:49;;;;;;;6.90;6.30;;;;;;;21.00;100.00;99069.22;5003405;28;20194;-75
2022/06/12 06:38:15;;;;;;;7.50;6.03;;;;;;;21.08;100.00;99065.97;4994556;28;20211;-80
2022/06/12 06:40:42;;;;;;;6.40;5.73;;;;;;;21.14;100.00;99068.38;5011678;28;20260;-79
2022/06/12 06:43:10;;;;;;;6.20;5.90;;;;;;;21.19;100.00;99070.28;5004517;28;20321;-79
2022/06/12 06:48:22;;;;;;;6.43;6.03;;;;;;;21.37;100.00;99073.19;4992223;28;20567;-73
2022/06/12 06:50:50;;;;;;;6.73;6.33;;;;;;;21.29;100.00;99067.53;4992868;28;20202;-85
2022/06/12 06:53:17;;;;;;;7.37;6.80;;;;;;;21.25;100.00;99079.97;5012008;28;20252;-77
2022/06/12 06:55:45;;;;;;;6.53;6.13;;;;;;;21.40;100.00;99093.44;5012087;28;20190;-79
2022/06/12 06:58:14;;;;;;;7.10;6.50;;;;;;;21.50;100.00;99083.41;5011265;28;20673;-77
2022/06/12 07:00:43;;;;;;;6.53;6.23;;;;;;;21.30;100.00;99083.47;5012384;28;20220;-76
2022/06/12 07:03:11;;;;;;;6.80;6.40;;;;;;;21.33;100.00;99091.03;5011618;28;20194;-76
2022/06/12 07:05:39;;;;;;;6.43;6.03;;;;;;;21.61;100.00;99106.63;5010071;28;20567;-84
2022/06/12 07:08:08;;;;;;;7.03;6.53;;;;;;;21.93;100.00;99119.75;5013587;28;20198;-79
2022/06/12 07:10:36;;;;;;;7.00;6.60;;;;;;;22.14;100.00;99122.06;5010089;28;20644;-81
2022/06/12 07:13:03;;;;;;;7.93;7.33;;;;;;;22.27;99.96;99110.63;4996508;28;20718;-80
2022/06/12 07:15:31;;;;;;;7.13;6.63;;;;;;;22.36;99.63;99106.22;4996230;28;20195;-90
2022/06/12 07:17:58;;;;;;;7.90;6.30;;;;;;;22.32;100.00;99107.88;4995929;28;20231;-83
2022/06/12 07:20:30;;;;;;;6.47;6.10;;;;;;;22.20;99.43;99099.28;4995920;28;20290;-83
2022/06/12 07:22:57;;;;;;;7.67;6.13;;;;;;;22.31;99.92;99102.72;4995461;28;20201;-79
2022/06/12 07:25:25;;;;;;;9.93;6.03;;;;;;;22.36;98.96;99110.81;4995995;28;20608;-85
2022/06/12 07:27:52;;;;;;;6.53;6.07;;;;;;;22.33;99.70;99093.25;4999570;28;20636;-79
2022/06/12 07:30:22;;;;;;;6.10;5.53;;;;;;;22.70;97.05;99114.38;5002461;28;20195;-79
2022/06/12 07:32:49;;;;;;;5.70;5.30;;;;;;;22.67;96.40;99121.16;5009914;28;20209;-76
2022/06/12 07:35:16;;;;;;;5.30;4.93;;;;;;;22.78;95.71;99117.28;5014099;28;20713;-74
2022/06/12 07:37:43;;;;;;;6.13;5.53;;;;;;;22.52;96.09;99120.47;4994715;28;20227;-74
2022/06/12 07:40:15;;;;;;;6.23;4.93;;;;;;;22.33;96.84;99123.00;4996173;28;20201;-72
2022/06/12 07:42:44;;;;;;;5.50;5.07;;;;;;;22.18;98.71;99123.13;4995309;28;20191;-73
2022/06/12 07:45:12;;;;;;;5.77;5.10;;;;;;;22.21;99.50;99125.25;5006146;28;20736;-71
2022/06/12 07:47:39;;;;;;;5.70;5.27;;;;;;;22.19;99.77;99130.16;5013920;28;20572;-70
2022/06/12 07:50:08;;;;;;;5.97;5.10;;;;;;;22.25;99.00;99129.00;5013996;28;20201;-70
2022/06/12 07:52:35;;;;;;;6.00;5.27;;;;;;;22.30;98.63;99136.31;5008107;28;20206;-71
2022/06/12 07:55:02;;;;;;;5.87;5.53;;;;;;;21.99;99.48;99141.06;4994604;28;20195;-73
2022/06/12 07:57:28;;;;;;;7.53;5.40;;;;;;;21.71;100.00;99127.41;4994564;28;20285;-70
2022/06/12 07:59:56;;;;;;;5.37;5.07;;;;;;;21.74;100.00;99132.25;4994694;28;20247;-68
2022/06/12 08:02:23;;;;;;;6.00;5.53;;;;;;;21.53;100.00;99126.09;5007026;28;20209;-71
2022/06/12 08:04:50;;;;;;;6.23;5.50;;;;;;;21.58;100.00;99134.19;5014584;28;20194;-71
2022/06/12 08:07:17;;;;;;;5.63;5.33;;;;;;;21.46;100.00;99139.09;5014617;28;20198;-70
2022/06/12 08:09:44;;;;;;;6.57;6.17;;;;;;;21.26;100.00;99132.91;5013994;28;20730;-68
2022/06/12 08:12:11;;;;;;;6.13;5.60;;;;;;;21.46;100.00;99139.09;4995541;28;20653;-71
2022/06/12 08:14:38;;;;;;;5.97;5.50;;;;;;;21.40;100.00;99147.50;4994858;28;20205;-71
2022/06/12 08:17:07;;;;;;;8.37;5.90;;;;;;;21.25;100.00;99140.22;4994325;28;20230;-71
2022/06/12 08:22:19;;;;;;;6.03;5.57;;;;;;;21.29;100.00;99152.09;4995148;28;20646;-73
2022/06/12 08:24:46;;;;;;;6.53;5.90;;;;;;;21.02;100.00;99148.91;4994425;28;20203;-70
2022/06/12 08:27:13;;;;;;;6.70;6.23;;;;;;;21.04;100.00;99146.75;4994597;28;20252;-69
2022/06/12 08:29:40;;;;;;;6.97;5.77;;;;;;;20.99;100.00;99146.72;4994433;28;20195;-69
2022/06/12 08:32:14;;;;;;;6.50;5.87;;;;;;;21.10;100.00;99159.16;4994455;28;20256;-68
2022/06/12 08:34:45;;;;;;;8.53;5.53;;;;;;;21.03;100.00;99155.91;4994491;28;20245;-70
2022/06/12 08:37:17;;;;;;;6.30;5.80;;;;;;;21.07;100.00;99159.69;5012096;28;20218;-70
2022/06/12 08:39:44;;;;;;;6.07;5.40;;;;;;;21.25;100.00;99164.53;4993384;28;20210;-76
2022/06/12 08:42:20;;;;;;;5.63;5.33;;;;;;;21.37;100.00;99150.72;4966735;28;23522;-74
2022/06/12 08:44:53;;;;;;;5.70;5.30;;;;;;;21.33;100.00;99163.16;4978735;28;20211;-71
2022/06/12 08:47:28;;;;;;;6.03;5.53;;;;;;;21.51;100.00;99155.28;5013662;28;20206;-70
2022/06/12 08:50:04;;;;;;;5.63;5.10;;;;;;;21.52;100.00;99148.78;5013907;28;20194;-69
2022/06/12 08:52:37;;;;;;;9.33;5.60;;;;;;;21.60;100.00;99169.84;5014033;28;20280;-69
2022/06/12 08:55:13;;;;;;;5.07;4.87;;;;;;;21.55;100.00;99172.56;5013009;28;20620;-68
2022/06/12 08:57:49;;;;;;;5.30;4.90;;;;;;;21.63;100.00;99163.91;5013188;28;20209;-71
2022/06/12 09:00:20;;;;;;;7.40;4.57;;;;;;;21.58;100.00;99168.50;5013427;28;20618;-70
2022/06/12 09:02:48;;;;;;;5.43;4.93;;;;;;;21.73;100.00;99174.72;5012259;28;20220;-70
2022/06/12 09:05:18;;;;;;;6.77;5.83;;;;;;;21.77;100.00;99175.81;5012200;28;20209;-69
2022/06/12 09:07:50;;;;;;;4.83;4.63;;;;;;;21.76;100.00;99171.44;5013347;28;20251;-69
2022/06/12 09:10:25;;;;;;;5.13;4.73;;;;;;;21.85;100.00;99164.38;5013411;28;20261;-69
2022/06/12 09:12:55;;;;;;;6.03;5.37;;;;;;;21.91;100.00;99171.41;5012488;28;20229;-68
2022/06/12 09:15:32;;;;;;;5.27;4.43;;;;;;;21.98;100.00;99174.63;5012661;28;20289;-70
2022/06/12 09:18:10;;;;;;;5.40;4.90;;;;;;;22.12;100.00;99178.34;5013166;28;20275;-70
2022/06/12 09:20:46;;;;;;;5.23;4.83;;;;;;;22.16;100.00;99179.41;5013079;28;20240;-70
2022/06/12 09:23:23;;;;;;;5.87;5.40;;;;;;;22.07;100.00;99178.38;5013805;28;20189;-69
2022/06/12 09:26:09;;;;;;;5.97;5.57;;;;;;;22.03;100.00;99181.91;5013770;28;20192;-70
2022/06/12 09:28:44;;;;;;;4.80;4.60;;;;;;;21.98;100.00;99171.94;5013253;28;20723;-70
2022/06/12 09:31:18;;;;;;;4.90;4.60;;;;;;;21.74;100.00;99168.22;5012479;28;20263;-71
2022/06/12 09:33:58;;;;;;;4.53;4.23;;;;;;;21.76;100.00;99184.97;5013498;28;20241;-70
2022/06/12 09:36:45;;;;;;;5.47;5.10;;;;;;;21.81;100.00;99176.84;5012407;28;20201;-73
2022/06/12 09:39:28;;;;;;;7.13;5.00;;;;;;;21.89;100.00;99180.88;5011478;28;20186;-70
2022/06/12 09:42:03;;;;;;;11.50;5.43;;;;;;;21.98;100.00;99181.94;5011357;28;20197;-67
2022/06/12 09:44:41;;;;;;;6.03;4.47;;;;;;;22.02;100.00;99183.00;5012853;28;20190;-69
2022/06/12 09:47:12;;;;;;;4.73;4.33;;;;;;;22.01;100.00;99174.06;5005991;28;20198;-68
2022/06/12 09:49:56;;;;;;;6.83;4.47;;;;;;;22.02;100.00;99175.69;4997554;28;20182;-67
2022/06/12 09:52:37;;;;;;;4.43;4.10;;;;;;;21.93;100.00;99169.22;5012860;28;20193;-67
2022/06/12 09:55:08;;;;;;;6.27;4.40;;;;;;;22.03;100.00;99174.59;5000152;28;20249;-66
2022/06/12 09:57:44;;;;;;;5.37;4.90;;;;;;;21.86;100.00;99174.13;4993166;28;20721;-66
2022/06/12 10:00:16;;;;;;;4.50;4.10;;;;;;;21.82;100.00;99173.06;4993474;28;20638;-67
2022/06/12 10:02:52;;;;;;;7.47;4.83;;;;;;;21.65;100.00;99171.75;4992897;28;20569;-68
2022/06/12 10:05:28;;;;;;;7.43;4.37;;;;;;;21.81;100.00;99171.44;4992416;28;20182;-67
2022/06/12 10:08:01;;;;;;;5.10;4.70;;;;;;;21.87;100.00;99170.34;4992291;28;20187;-69
2022/06/12 10:10:34;;;;;;;5.73;5.23;;;;;;;21.96;100.00;99174.09;4997367;28;20280;-69
2022/06/12 10:13:05;;;;;;;6.17;4.40;;;;;;;21.95;100.00;99177.88;5012528;28;20253;-68
2022/06/12 10:15:38;;;;;;;5.67;4.20;;;;;;;21.66;100.00;99174.16;5013007;28;20268;-67
2022/06/12 10:18:08;;;;;;;4.13;3.93;;;;;;;21.90;100.00;99177.91;5013181;28;20214;-67
2022/06/12 10:20:41;;;;;;;4.50;4.10;;;;;;;21.89;99.92;99181.69;5012140;28;20552;-66
2022/06/12 10:23:08;;;;;;;4.23;3.83;;;;;;;21.98;99.05;99185.44;5012973;28;20194;-67
2022/06/12 10:25:38;;;;;;;4.67;4.37;;;;;;;22.04;99.51;99184.31;5011792;28;20198;-66
2022/06/12 10:28:08;;;;;;;4.50;4.20;;;;;;;22.02;98.28;99183.81;5012332;28;20256;-65
2022/06/12 10:30:39;;;;;;;3.73;3.53;;;;;;;21.77;99.70;99175.81;5010572;28;20587;-67
2022/06/12 10:33:18;;;;;;;4.30;4.07;;;;;;;21.71;100.00;99165.25;5012416;28;20268;-74
2022/06/12 10:35:53;;;;;;;4.87;4.67;;;;;;;21.71;100.00;99176.88;5012350;28;20650;-74
2022/06/12 10:38:21;;;;;;;4.63;4.43;;;;;;;21.49;100.00;99180.97;5012809;28;20213;-72
2022/06/12 10:40:51;;;;;;;4.57;4.27;;;;;;;21.60;100.00;99177.16;5012167;28;20202;-76
2022/06/12 10:43:33;;;;;;;4.40;4.20;;;;;;;21.79;100.00;99168.22;5012208;28;20193;-75
2022/06/12 10:46:07;;;;;;;5.30;5.00;;;;;;;21.97;100.00;99174.91;5012775;28;20627;-71
2022/06/12 10:48:36;;;;;;;5.07;4.73;;;;;;;22.13;99.85;99177.25;5010926;28;20192;-72
2022/06/12 10:51:21;;;;;;;4.97;4.77;;;;;;;21.63;100.00;99168.50;5010829;28;20194;-73
2022/06/12 10:53:48;;;;;;;5.60;5.20;;;;;;;21.52;100.00;99173.13;5012093;28;20273;-72
2022/06/12 10:56:24;;;;;;;4.70;4.47;;;;;;;21.65;100.00;99169.03;5012260;28;20189;-71
2022/06/12 10:59:09;;;;;;;4.50;4.30;;;;;;;21.68;100.00;99169.28;5011454;28;20221;-72
2022/06/12 11:01:43;;;;;;;5.47;4.93;;;;;;;21.76;100.00;99162.56;5010658;28;20190;-76
2022/06/12 11:04:26;;;;;;;5.10;4.70;;;;;;;21.91;100.00;99154.34;5011784;28;20193;-78
2022/06/12 11:07:06;;;;;;;6.47;5.97;;;;;;;21.93;100.00;99163.00;5011651;28;20677;-75
2022/06/12 11:09:46;;;;;;;4.90;4.70;;;;;;;21.88;100.00;99161.13;5011267;28;20201;-76
2022/06/12 11:12:34;;;;;;;4.40;4.20;;;;;;;21.94;100.00;99157.34;5010008;28;20217;-76
2022/06/12 11:15:19;;;;;;;5.10;4.70;;;;;;;22.00;100.00;99169.75;5011210;28;20221;-76
2022/06/12 11:17:59;;;;;;;5.57;5.00;;;;;;;22.06;99.36;99168.63;5011246;28;20221;-75
2022/06/12 11:20:38;;;;;;;5.03;4.53;;;;;;;22.09;99.43;99162.66;5011353;28;20190;-75
2022/06/12 11:23:32;;;;;;;5.67;4.33;;;;;;;21.93;100.00;99163.00;5012148;28;20190;-75
2022/06/12 11:26:13;;;;;;;4.90;4.60;;;;;;;21.98;100.00;99160.28;5012506;28;20256;-75
2022/06/12 11:28:52;;;;;;;5.53;5.07;;;;;;;22.13;100.00;99169.13;5011425;28;20205;-76
2022/06/12 11:31:43;;;;;;;5.80;5.50;;;;;;;22.19;100.00;99167.22;5011964;28;20708;-75
2022/06/12 11:34:27;;;;;;;7.60;4.83;;;;;;;22.11;100.00;99160.50;5011431;28;20273;-75
2022/06/12 11:37:10;;;;;;;4.70;4.30;;;;;;;22.12;98.96;99156.69;5011360;28;20201;-75
2022/06/12 11:39:54;;;;;;;4.57;4.27;;;;;;;22.24;99.06;99165.28;5011669;28;20582;-75
2022/06/12 11:42:44;;;;;;;4.63;4.40;;;;;;;22.42;98.71;99155.72;5012065;28;20186;-75
2022/06/12 11:45:22;;;;;;;13.67;4.93;;;;;;;22.28;97.94;99155.53;5011670;28;20193;-75
2022/06/12 11:48:13;;;;;;;4.80;4.40;;;;;;;22.30;99.35;99164.16;5012185;28;20202;-75
2022/06/12 11:50:46;;;;;;;5.37;4.90;;;;;;;22.30;98.81;99166.88;5012204;28;20182;-75
2022/06/12 11:53:33;;;;;;;5.80;4.40;;;;;;;22.27;98.55;99159.31;5012021;28;20201;-75
2022/06/12 11:56:11;;;;;;;4.73;4.53;;;;;;;22.22;98.05;99170.16;5015160;28;20190;-75
2022/06/12 11:59:06;;;;;;;4.17;3.97;;;;;;;22.01;97.99;99182.16;5015279;28;20276;-75
2022/06/12 12:01:38;;;;;;;4.53;4.30;;;;;;;21.95;99.04;99183.28;5015194;28;20681;-76
2022/06/12 12:04:43;;;;;;;4.63;4.37;;;;;;;21.91;99.44;99178.69;5014913;28;20638;-75